createdAt,value
2022-09-01T00:00:24.035Z,62.76
2022-09-01T00:05:27.347Z,61.08
2022-09-01T00:10:30.411Z,59.43
2022-09-01T00:15:35.258Z,58.12
2022-09-01T00:20:38.332Z,56.58
2022-09-01T00:25:41.412Z,54.51
2022-09-01T00:30:44.401Z,56.11
2022-09-01T00:35:48.247Z,56.19
2022-09-01T00:40:51.375Z,57.05
2022-09-01T00:45:55.080Z,56.40
2022-09-01T00:50:58.707Z,56.85
2022-09-01T00:56:03.297Z,57.73
2022-09-01T01:01:08.908Z,57.88
2022-09-01T01:06:14.120Z,57.39
2022-09-01T01:11:20.312Z,54.58
2022-09-01T01:16:24.539Z,55.35
2022-09-01T01:22:00.298Z,53.57
2022-09-01T01:27:05.115Z,52.79
2022-09-01T01:32:13.562Z,53.75
2022-09-01T01:37:16.507Z,52.44
2022-09-01T01:42:19.935Z,54.02
2022-09-01T01:47:23.719Z,53.59
2022-09-01T01:52:27.642Z,53.24
2022-09-01T01:57:34.930Z,53.43
2022-09-01T02:02:40.385Z,53.39
2022-09-01T02:07:43.853Z,53.40
2022-09-01T02:12:47.439Z,52.75
2022-09-01T02:17:51.126Z,53.13
2022-09-01T02:22:55.704Z,54.02
2022-09-01T02:28:00.785Z,52.89
2022-09-01T02:33:05.638Z,53.28
2022-09-01T02:38:09.112Z,53.88
2022-09-01T02:43:14.132Z,53.63
2022-09-01T02:48:18.992Z,51.64
2022-09-01T02:53:23.242Z,51.45
2022-09-01T02:58:28.083Z,50.20
2022-09-01T03:03:31.648Z,50.15
2022-09-01T03:08:37.060Z,51.83
2022-09-01T03:13:42.342Z,52.72
2022-09-01T03:18:45.411Z,55.06
2022-09-01T03:23:51.194Z,56.61
2022-09-01T03:28:54.638Z,56.05
2022-09-01T03:34:00.857Z,56.89
2022-09-01T03:39:14.553Z,54.71
2022-09-01T03:44:19.989Z,53.48
2022-09-01T03:49:25.455Z,54.97
2022-09-01T03:54:30.696Z,55.08
2022-09-01T03:59:34.885Z,55.16
2022-09-01T04:04:37.954Z,57.09
2022-09-01T04:09:42.728Z,59.02
2022-09-01T04:14:48.716Z,57.57
2022-09-01T04:19:52.258Z,58.92
2022-09-01T04:24:56.549Z,58.28
2022-09-01T04:30:01.940Z,57.51
2022-09-01T04:35:11.963Z,57.06
2022-09-01T04:40:15.779Z,56.90
2022-09-01T04:45:25.515Z,57.52
2022-09-01T04:50:31.112Z,59.14
2022-09-01T04:55:55.107Z,59.81
2022-09-01T05:01:06.662Z,58.74
2022-09-01T05:06:15.328Z,57.00
2022-09-01T05:11:24.247Z,58.81
2022-09-01T05:16:36.468Z,58.11
2022-09-01T05:21:40.501Z,57.91
2022-09-01T05:26:47.116Z,56.18
2022-09-01T05:31:50.650Z,56.74
2022-09-01T05:36:59.666Z,55.13
2022-09-01T05:42:05.605Z,53.88
2022-09-01T05:47:10.078Z,53.79
2022-09-01T05:52:26.619Z,53.17
2022-09-01T05:57:35.693Z,51.68
2022-09-01T06:02:40.268Z,50.36
2022-09-01T06:07:44.539Z,44.59
2022-09-01T06:12:50.722Z,43.48
2022-09-01T06:17:58.944Z,36.22
2022-09-01T06:23:03.253Z,33.84
2022-09-01T06:28:08.817Z,33.59
2022-09-01T06:33:14.352Z,30.61
2022-09-01T06:38:23.418Z,29.09
2022-09-01T06:43:28.073Z,28.26
2022-09-01T06:48:31.521Z,27.50
2022-09-01T06:53:41.630Z,27.01
2022-09-01T06:58:49.291Z,26.45
2022-09-01T07:03:57.083Z,25.60
2022-09-01T07:09:20.589Z,25.41
2022-09-01T07:20:29.594Z,23.89
2022-09-01T07:26:00.518Z,25.20
2022-09-01T07:47:54.191Z,25.15
2022-09-01T07:52:59.034Z,25.12
2022-09-01T07:58:02.264Z,24.64
2022-09-01T08:03:06.741Z,24.39
2022-09-01T08:08:29.109Z,25.07
2022-09-01T08:13:41.695Z,24.46
2022-09-01T08:18:49.184Z,24.48
2022-09-01T08:24:04.831Z,24.19
2022-09-01T08:29:10.475Z,23.99
2022-09-01T08:34:18.056Z,24.70
2022-09-01T08:39:22.492Z,24.12
2022-09-01T08:44:50.415Z,24.46
2022-09-01T08:49:54.566Z,22.23
2022-09-01T08:55:32.367Z,22.88
2022-09-01T09:00:51.469Z,23.50
2022-09-01T09:06:09.570Z,23.23
2022-09-01T09:11:34.259Z,22.00
2022-09-01T09:16:53.334Z,22.47
2022-09-01T09:22:00.217Z,22.10
2022-09-01T09:27:04.396Z,21.16
2022-09-01T09:32:44.251Z,23.24
2022-09-01T09:37:33.585Z,24.02
2022-09-01T09:42:40.177Z,24.19
2022-09-01T09:47:46.743Z,23.56
2022-09-01T09:52:52.266Z,23.15
2022-09-01T09:58:00.233Z,23.43
2022-09-01T10:03:08.026Z,24.08
2022-09-01T10:08:38.423Z,26.29
2022-09-01T10:13:42.189Z,23.71
2022-09-01T10:18:46.831Z,24.75
2022-09-01T10:23:49.886Z,25.29
2022-09-01T10:28:55.312Z,24.41
2022-09-01T10:33:59.927Z,23.93
2022-09-01T10:39:08.979Z,25.02
2022-09-01T10:44:20.573Z,26.12
2022-09-01T10:49:29.838Z,28.35
2022-09-01T10:54:51.114Z,29.06
2022-09-01T10:59:56.735Z,29.82
2022-09-01T11:05:00.340Z,29.08
2022-09-01T11:10:32.200Z,29.38
2022-09-01T11:15:42.467Z,29.00
2022-09-01T11:20:46.111Z,27.03
2022-09-01T11:31:27.259Z,43.67
2022-09-01T11:36:53.070Z,47.01
2022-09-01T11:42:17.286Z,46.42
2022-09-01T11:47:22.082Z,50.85
2022-09-01T11:52:30.919Z,51.43
2022-09-01T11:57:37.485Z,53.19
2022-09-01T12:02:49.499Z,52.84
2022-09-01T12:07:53.187Z,56.42
2022-09-01T12:13:10.820Z,57.96
2022-09-01T12:18:22.399Z,60.43
2022-09-01T12:23:46.165Z,60.06
2022-09-01T12:28:50.079Z,58.44
2022-09-01T12:33:55.595Z,56.31
2022-09-01T12:39:18.327Z,52.35
2022-09-01T12:44:34.716Z,49.77
2022-09-01T12:49:50.003Z,50.44
2022-09-01T12:54:59.290Z,49.00
2022-09-01T13:00:12.426Z,46.22
2022-09-01T13:05:32.742Z,47.74
2022-09-01T13:10:43.162Z,47.57
2022-09-01T13:15:50.660Z,48.03
2022-09-01T13:20:54.584Z,45.95
2022-09-01T13:25:59.262Z,43.22
2022-09-01T13:36:51.105Z,42.83
2022-09-01T13:41:53.812Z,48.27
2022-09-01T13:47:00.525Z,45.27
2022-09-01T13:52:03.929Z,40.86
2022-09-01T13:57:07.221Z,45.22
2022-09-01T14:02:11.347Z,40.69
2022-09-01T14:07:14.270Z,42.97
2022-09-01T14:12:17.062Z,44.08
2022-09-01T14:17:19.924Z,44.71
2022-09-01T14:22:22.941Z,46.67
2022-09-01T14:27:25.847Z,48.89
2022-09-01T14:32:29.775Z,47.15
2022-09-01T14:37:32.699Z,42.80
2022-09-01T14:42:37.373Z,43.60
2022-09-01T14:47:40.509Z,42.47
2022-09-01T14:52:44.075Z,42.30
2022-09-01T14:57:47.494Z,43.60
2022-09-01T15:02:50.749Z,41.85
2022-09-01T15:07:54.175Z,41.83
2022-09-01T15:12:59.042Z,38.98
2022-09-01T15:18:02.631Z,40.74
2022-09-01T15:23:07.412Z,40.73
2022-09-01T15:28:10.769Z,39.18
2022-09-01T15:33:15.931Z,41.09
2022-09-01T15:38:19.232Z,41.25
2022-09-01T15:43:22.835Z,41.77
2022-09-01T15:48:27.638Z,39.87
2022-09-01T15:53:30.652Z,39.24
2022-09-01T15:58:59.430Z,38.38
2022-09-01T16:03:58.141Z,38.80
2022-09-01T16:09:01.269Z,40.52
2022-09-01T16:14:04.852Z,41.93
2022-09-01T16:19:39.264Z,43.18
2022-09-01T16:24:46.420Z,45.37
2022-09-01T16:29:58.614Z,46.11
2022-09-01T16:35:04.276Z,46.50
2022-09-01T16:40:15.334Z,47.94
2022-09-01T16:45:43.027Z,47.89
2022-09-01T16:51:04.461Z,50.18
2022-09-01T16:56:12.186Z,52.14
2022-09-01T17:01:30.498Z,53.66
2022-09-01T17:06:46.564Z,52.56
2022-09-01T17:11:58.720Z,55.01
2022-09-01T17:17:15.842Z,53.35
2022-09-01T17:22:20.260Z,56.14
2022-09-01T17:27:28.262Z,49.12
2022-09-01T17:33:03.190Z,39.67
2022-09-01T17:38:25.350Z,38.56
2022-09-01T17:43:53.381Z,37.63
2022-09-01T17:49:21.563Z,37.11
2022-09-01T17:54:50.544Z,37.00
2022-09-01T18:00:11.200Z,38.36
2022-09-01T18:05:24.683Z,42.33
2022-09-01T18:10:39.633Z,47.05
2022-09-01T18:15:54.369Z,53.24
2022-09-01T18:21:14.366Z,56.30
2022-09-01T18:26:34.985Z,57.35
2022-09-01T18:31:52.869Z,58.52
2022-09-01T18:37:20.205Z,59.30
2022-09-01T18:42:30.317Z,60.37
2022-09-01T18:47:37.122Z,63.66
2022-09-01T18:52:58.906Z,64.70
2022-09-01T18:58:34.320Z,67.15
2022-09-01T19:03:58.417Z,68.66
2022-09-01T19:09:09.092Z,69.33
2022-09-01T19:19:30.700Z,71.45
2022-09-01T19:24:43.737Z,71.58
2022-09-01T19:29:56.255Z,72.62
2022-09-01T19:35:07.362Z,74.00
2022-09-01T19:40:11.596Z,75.04
2022-09-01T19:45:38.892Z,75.68
2022-09-01T19:51:00.774Z,75.00
2022-09-01T19:56:09.503Z,75.13
2022-09-01T20:01:18.345Z,76.16
2022-09-01T20:06:43.606Z,77.08
2022-09-01T20:11:58.410Z,77.32
2022-09-01T20:17:13.162Z,77.26
2022-09-01T20:22:21.893Z,78.48
2022-09-01T20:27:33.562Z,78.13
2022-09-01T20:33:03.321Z,78.65
2022-09-01T20:38:35.379Z,78.01
2022-09-01T20:43:46.078Z,79.14
2022-09-01T20:48:50.059Z,79.17
2022-09-01T20:54:15.488Z,79.36
2022-09-01T20:59:45.535Z,78.93
2022-09-01T21:05:11.108Z,79.41
2022-09-01T21:10:59.447Z,77.40
2022-09-01T21:16:20.399Z,78.90
2022-09-01T21:21:41.930Z,80.02
2022-09-01T21:26:44.862Z,81.02
2022-09-01T21:31:48.762Z,82.97
2022-09-01T21:36:51.628Z,82.98
2022-09-01T21:41:58.265Z,81.65
2022-09-01T21:47:01.493Z,84.07
2022-09-01T21:52:05.508Z,85.87
2022-09-01T21:57:08.375Z,86.19
2022-09-01T22:02:11.341Z,86.72
2022-09-01T22:07:17.412Z,87.12
2022-09-01T22:12:20.241Z,87.92
2022-09-01T22:17:23.142Z,88.32
2022-09-01T22:22:25.990Z,89.72
2022-09-01T22:27:28.803Z,90.07
2022-09-01T22:32:34.031Z,89.91
2022-09-01T22:37:38.006Z,90.60
2022-09-01T22:42:40.991Z,90.69
2022-09-01T22:47:44.125Z,90.50
2022-09-01T22:52:47.024Z,90.77
2022-09-01T22:57:49.850Z,91.02
2022-09-01T23:02:53.375Z,91.48
2022-09-01T23:07:58.673Z,91.35
2022-09-01T23:13:01.780Z,91.33
2022-09-01T23:18:04.812Z,91.28
2022-09-01T23:23:08.024Z,91.12
2022-09-01T23:28:14.631Z,91.30
2022-09-01T23:33:19.204Z,90.37
2022-09-01T23:38:24.371Z,90.10
2022-09-01T23:43:27.747Z,89.54
2022-09-01T23:48:31.333Z,89.01
2022-09-01T23:53:35.532Z,88.05
2022-09-01T23:58:38.889Z,87.47
